createdAt,value
2019-03-29T00:00:07.531Z,9.30
2019-03-29T00:02:36.744Z,9.20
2019-03-29T00:05:05.861Z,9.20
2019-03-29T00:07:39.995Z,9.20
2019-03-29T00:10:06.391Z,9.10
2019-03-29T00:12:35.487Z,9.10
2019-03-29T00:15:05.659Z,9.10
2019-03-29T00:17:34.818Z,9.10
2019-03-29T00:20:06.344Z,9.00
2019-03-29T00:22:35.596Z,9.10
2019-03-29T00:25:04.893Z,9.00
2019-03-29T00:27:33.804Z,9.00
2019-03-29T00:30:02.848Z,9.00
2019-03-29T00:32:31.939Z,8.90
2019-03-29T00:35:00.990Z,9.00
2019-03-29T00:37:29.889Z,9.00
2019-03-29T00:39:59.050Z,9.00
2019-03-29T00:42:28.162Z,9.10
2019-03-29T00:44:56.987Z,9.20
2019-03-29T00:47:25.974Z,9.20
2019-03-29T00:49:54.769Z,9.20
2019-03-29T00:52:23.716Z,9.20
2019-03-29T00:54:52.807Z,9.20
2019-03-29T00:57:21.803Z,9.20
2019-03-29T00:59:50.567Z,9.20
2019-03-29T01:02:19.808Z,9.20
2019-03-29T01:04:49.008Z,9.20
2019-03-29T01:07:17.863Z,9.20
2019-03-29T01:09:46.908Z,9.10
2019-03-29T01:12:15.815Z,9.20
2019-03-29T01:14:44.838Z,9.20
2019-03-29T01:17:13.847Z,9.10
2019-03-29T01:19:42.914Z,9.10
2019-03-29T01:22:11.913Z,9.10
2019-03-29T01:24:41.443Z,9.10
2019-03-29T01:27:11.009Z,9.00
2019-03-29T01:29:40.292Z,9.00
2019-03-29T01:32:09.405Z,8.90
2019-03-29T01:34:38.347Z,8.90
2019-03-29T01:37:07.369Z,8.90
2019-03-29T01:39:36.529Z,8.80
2019-03-29T01:42:05.645Z,8.90
2019-03-29T01:44:34.755Z,8.90
2019-03-29T01:47:04.059Z,8.90
2019-03-29T01:49:33.522Z,8.90
2019-03-29T01:52:02.525Z,9.00
2019-03-29T01:54:31.634Z,9.10
2019-03-29T01:57:00.593Z,9.10
2019-03-29T01:59:29.555Z,9.10
2019-03-29T02:01:58.628Z,9.10
2019-03-29T02:04:27.585Z,9.20
2019-03-29T02:06:56.437Z,9.20
2019-03-29T02:09:25.579Z,9.20
2019-03-29T02:11:54.654Z,9.30
2019-03-29T02:14:23.658Z,9.30
2019-03-29T02:16:52.701Z,9.30
2019-03-29T02:19:21.870Z,9.30
2019-03-29T02:21:50.980Z,9.30
2019-03-29T02:24:20.148Z,9.30
2019-03-29T02:26:49.095Z,9.30
2019-03-29T02:29:18.161Z,9.30
2019-03-29T02:31:47.267Z,9.30
2019-03-29T02:34:16.415Z,9.30
2019-03-29T02:36:45.438Z,9.30
2019-03-29T02:39:14.683Z,9.30
2019-03-29T02:41:43.895Z,9.30
2019-03-29T02:44:12.746Z,9.20
2019-03-29T02:46:41.838Z,9.20
2019-03-29T02:49:12.688Z,9.10
2019-03-29T02:51:41.722Z,9.10
2019-03-29T02:54:10.541Z,9.00
2019-03-29T02:56:39.665Z,9.00
2019-03-29T02:59:08.682Z,9.30
2019-03-29T03:01:37.599Z,8.90
2019-03-29T03:04:06.652Z,8.90
2019-03-29T03:06:35.779Z,8.90
2019-03-29T03:09:14.019Z,8.80
2019-03-29T03:11:36.498Z,8.80
2019-03-29T03:14:05.493Z,8.90
2019-03-29T03:16:34.406Z,8.80
2019-03-29T03:19:03.372Z,8.80
2019-03-29T03:21:32.298Z,9.10
2019-03-29T03:24:01.451Z,10.60
2019-03-29T03:26:30.614Z,8.60
2019-03-29T03:28:59.778Z,8.70
2019-03-29T03:31:29.001Z,8.60
2019-03-29T03:33:57.975Z,8.50
2019-03-29T03:36:26.967Z,8.50
2019-03-29T03:38:55.758Z,8.40
2019-03-29T03:41:24.972Z,8.30
2019-03-29T03:43:53.760Z,8.40
2019-03-29T03:46:22.773Z,7.60
2019-03-29T03:48:51.762Z,8.30
2019-03-29T03:51:21.293Z,8.30
2019-03-29T03:53:50.373Z,8.30
2019-03-29T03:56:19.448Z,8.30
2019-03-29T03:58:48.426Z,8.30
2019-03-29T04:01:17.523Z,8.30
2019-03-29T04:03:46.674Z,8.20
2019-03-29T04:06:15.664Z,8.20
2019-03-29T04:08:44.568Z,8.20
2019-03-29T04:11:13.335Z,8.10
2019-03-29T04:13:42.400Z,8.10
2019-03-29T04:16:11.362Z,8.10
2019-03-29T04:18:40.200Z,8.00
2019-03-29T04:21:09.413Z,8.20
2019-03-29T04:23:38.292Z,8.00
2019-03-29T04:26:07.421Z,8.00
2019-03-29T04:28:36.360Z,8.00
2019-03-29T04:31:05.575Z,8.00
2019-03-29T04:33:34.480Z,8.00
2019-03-29T04:36:03.522Z,7.90
2019-03-29T04:38:32.604Z,7.90
2019-03-29T04:41:01.670Z,7.90
2019-03-29T04:43:30.926Z,7.90
2019-03-29T04:46:00.120Z,7.80
2019-03-29T04:48:29.089Z,7.90
2019-03-29T04:50:58.279Z,7.80
2019-03-29T04:53:27.260Z,7.80
2019-03-29T04:55:56.278Z,7.80
2019-03-29T04:58:25.453Z,7.80
2019-03-29T05:00:54.430Z,7.80
2019-03-29T05:03:23.476Z,7.90
2019-03-29T05:05:52.602Z,7.70
2019-03-29T05:08:21.748Z,7.70
2019-03-29T05:10:50.507Z,7.70
2019-03-29T05:13:19.428Z,7.80
2019-03-29T05:15:48.647Z,7.60
2019-03-29T05:18:17.543Z,7.70
2019-03-29T05:20:46.499Z,7.60
2019-03-29T05:23:15.502Z,7.60
2019-03-29T05:25:44.545Z,7.60
2019-03-29T05:28:13.645Z,7.60
2019-03-29T05:30:42.611Z,7.60
2019-03-29T05:33:11.422Z,7.50
2019-03-29T05:35:40.629Z,7.50
2019-03-29T05:38:09.638Z,7.50
2019-03-29T05:40:38.708Z,7.50
2019-03-29T05:43:07.832Z,7.50
2019-03-29T05:45:36.870Z,7.40
2019-03-29T05:48:05.997Z,7.40
2019-03-29T05:50:55.293Z,7.40
2019-03-29T05:53:24.308Z,7.50
2019-03-29T05:55:53.239Z,7.40
2019-03-29T05:58:22.415Z,7.50
2019-03-29T06:00:52.311Z,7.50
2019-03-29T06:03:21.822Z,7.50
2019-03-29T06:05:51.053Z,7.60
2019-03-29T06:08:20.036Z,7.80
2019-03-29T06:10:49.769Z,7.60
2019-03-29T06:13:19.316Z,7.80
2019-03-29T06:15:48.268Z,7.70
2019-03-29T06:18:17.377Z,7.70
2019-03-29T06:20:46.524Z,7.80
2019-03-29T06:23:15.751Z,7.80
2019-03-29T06:25:44.720Z,7.90
2019-03-29T06:28:13.756Z,8.00
2019-03-29T06:30:42.748Z,8.00
2019-03-29T06:33:11.932Z,8.10
2019-03-29T06:35:41.120Z,8.20
2019-03-29T06:38:10.027Z,8.20
2019-03-29T06:40:39.110Z,8.40
2019-03-29T06:43:08.247Z,8.40
2019-03-29T06:45:47.300Z,8.50
2019-03-29T06:48:08.061Z,8.60
2019-03-29T06:50:37.150Z,8.70
2019-03-29T06:53:06.491Z,8.90
2019-03-29T06:55:35.683Z,9.00
2019-03-29T06:58:04.954Z,9.00
2019-03-29T07:00:34.063Z,9.10
2019-03-29T07:03:03.220Z,9.20
2019-03-29T07:05:32.450Z,9.30
2019-03-29T07:08:01.469Z,9.40
2019-03-29T07:10:30.783Z,9.50
2019-03-29T07:12:59.791Z,9.70
2019-03-29T07:15:28.931Z,9.80
2019-03-29T07:17:58.212Z,9.90
2019-03-29T07:20:27.309Z,10.00
2019-03-29T07:22:56.558Z,10.20
2019-03-29T07:25:25.624Z,10.30
2019-03-29T07:30:23.266Z,10.70
2019-03-29T07:32:53.800Z,10.80
2019-03-29T07:35:22.987Z,11.00
2019-03-29T07:37:53.619Z,11.20
2019-03-29T07:42:51.519Z,11.50
2019-03-29T07:45:20.302Z,11.70
2019-03-29T07:47:49.273Z,11.80
2019-03-29T07:50:20.634Z,12.00
2019-03-29T07:52:53.920Z,12.10
2019-03-29T07:55:24.387Z,12.30
2019-03-29T07:57:53.456Z,12.50
2019-03-29T08:00:22.386Z,12.80
2019-03-29T08:02:51.507Z,13.40
2019-03-29T08:05:20.505Z,14.10
2019-03-29T08:07:49.317Z,14.80
2019-03-29T08:10:25.871Z,15.50
2019-03-29T08:12:49.755Z,16.40
2019-03-29T08:15:19.196Z,17.10
2019-03-29T08:17:50.158Z,17.80
2019-03-29T08:20:40.153Z,18.40
2019-03-29T08:22:49.742Z,19.10
2019-03-29T08:25:18.968Z,19.60
2019-03-29T08:27:48.156Z,19.90
2019-03-29T08:30:17.377Z,20.20
2019-03-29T08:32:47.271Z,20.50
2019-03-29T08:35:16.524Z,20.70
2019-03-29T08:37:45.656Z,21.00
2019-03-29T08:40:14.909Z,21.20
2019-03-29T08:42:44.090Z,21.30
2019-03-29T08:45:13.030Z,21.60
2019-03-29T08:47:42.200Z,21.80
2019-03-29T08:50:11.370Z,22.00
2019-03-29T08:52:40.291Z,21.90
2019-03-29T08:55:09.533Z,21.90
2019-03-29T08:57:38.589Z,21.70
2019-03-29T09:00:07.949Z,21.70
2019-03-29T09:02:37.288Z,22.00
2019-03-29T09:05:06.781Z,22.20
2019-03-29T09:07:44.537Z,22.40
2019-03-29T09:10:11.611Z,22.10
2019-03-29T09:12:41.108Z,22.20
2019-03-29T09:15:10.579Z,22.30
2019-03-29T09:17:40.111Z,22.50
2019-03-29T09:20:10.720Z,22.60
2019-03-29T09:22:40.019Z,23.00
2019-03-29T09:25:08.945Z,23.20
2019-03-29T09:27:38.078Z,23.40
2019-03-29T09:30:07.271Z,23.40
2019-03-29T09:32:36.328Z,23.40
2019-03-29T09:35:06.299Z,23.50
2019-03-29T09:37:35.554Z,23.60
2019-03-29T09:40:06.037Z,23.60
2019-03-29T09:42:35.032Z,23.70
2019-03-29T09:45:05.359Z,23.80
2019-03-29T09:47:40.157Z,24.10
2019-03-29T09:50:09.972Z,24.20
2019-03-29T09:52:37.297Z,24.60
2019-03-29T09:55:06.517Z,24.80
2019-03-29T09:57:38.150Z,24.90
2019-03-29T10:00:19.349Z,25.30
2019-03-29T10:02:40.248Z,25.10
2019-03-29T10:05:09.237Z,25.20
2019-03-29T10:07:38.302Z,25.00
2019-03-29T10:10:11.014Z,25.10
2019-03-29T10:12:43.809Z,25.10
2019-03-29T10:15:11.243Z,25.30
2019-03-29T10:17:47.511Z,25.20
2019-03-29T10:20:16.659Z,25.40
2019-03-29T10:22:45.848Z,25.50
2019-03-29T10:25:19.562Z,25.60
2019-03-29T10:27:45.629Z,25.80
2019-03-29T10:30:17.682Z,25.90
2019-03-29T10:32:46.909Z,26.00
2019-03-29T10:35:16.217Z,26.20
2019-03-29T10:37:45.072Z,26.50
2019-03-29T10:40:14.019Z,26.60
2019-03-29T10:42:56.670Z,26.90
2019-03-29T10:45:13.894Z,26.90
2019-03-29T10:47:52.390Z,26.80
2019-03-29T10:50:21.399Z,26.60
2019-03-29T10:52:50.565Z,26.50
2019-03-29T10:55:20.048Z,26.50
2019-03-29T10:57:50.957Z,26.70
2019-03-29T11:00:23.306Z,26.70
2019-03-29T11:02:52.417Z,27.00
2019-03-29T11:05:21.432Z,27.20
2019-03-29T11:07:50.536Z,27.10
2019-03-29T11:10:30.558Z,27.00
2019-03-29T11:13:11.869Z,26.90
2019-03-29T11:15:30.268Z,26.80
2019-03-29T11:17:59.420Z,26.90
2019-03-29T11:20:28.415Z,27.00
2019-03-29T11:22:57.596Z,27.30
2019-03-29T11:25:26.615Z,27.60
2019-03-29T11:27:55.759Z,27.90
2019-03-29T11:30:24.878Z,28.00
2019-03-29T11:32:54.047Z,28.40
2019-03-29T11:35:23.198Z,28.60
2019-03-29T11:37:52.245Z,28.80
2019-03-29T11:40:21.189Z,28.70
2019-03-29T11:42:50.106Z,28.90
2019-03-29T11:45:19.147Z,29.10
2019-03-29T11:47:48.547Z,29.30
2019-03-29T11:50:17.812Z,29.50
2019-03-29T11:52:46.908Z,29.60
2019-03-29T11:55:16.109Z,29.80
2019-03-29T11:57:45.092Z,29.60
2019-03-29T12:00:14.042Z,29.60
2019-03-29T12:02:43.063Z,29.60
2019-03-29T12:05:15.195Z,29.60
2019-03-29T12:07:47.128Z,29.70
2019-03-29T12:10:16.327Z,29.70
2019-03-29T12:12:45.126Z,29.80
2019-03-29T12:15:16.090Z,29.90
2019-03-29T12:17:45.307Z,30.00
2019-03-29T12:20:14.379Z,30.10
2019-03-29T12:22:43.236Z,30.10
2019-03-29T12:25:12.227Z,30.10
2019-03-29T12:27:41.332Z,30.10
2019-03-29T12:30:10.537Z,30.20
2019-03-29T12:32:39.716Z,30.10
2019-03-29T12:35:10.147Z,30.10
2019-03-29T12:37:39.416Z,30.20
2019-03-29T12:40:09.153Z,30.20
2019-03-29T12:42:38.484Z,30.10
2019-03-29T12:45:07.871Z,29.90
2019-03-29T12:47:37.003Z,29.90
2019-03-29T12:50:07.892Z,29.80
2019-03-29T12:52:36.950Z,29.70
2019-03-29T12:55:06.485Z,29.60
2019-03-29T12:57:38.781Z,29.50
2019-03-29T13:00:07.470Z,29.50
2019-03-29T13:02:36.829Z,29.50
2019-03-29T13:05:08.741Z,29.50
2019-03-29T13:07:37.602Z,29.50
2019-03-29T13:10:09.521Z,29.50
2019-03-29T13:12:38.415Z,29.50
2019-03-29T13:15:08.250Z,29.60
2019-03-29T13:17:37.271Z,29.70
2019-03-29T13:20:09.812Z,29.70
2019-03-29T13:22:38.737Z,29.80
2019-03-29T13:25:07.933Z,30.00
2019-03-29T13:27:36.928Z,30.00
2019-03-29T13:30:07.865Z,30.10
2019-03-29T13:32:36.979Z,30.20
2019-03-29T13:35:07.401Z,30.10
2019-03-29T13:37:36.575Z,30.10
2019-03-29T13:40:08.987Z,30.20
2019-03-29T13:42:38.113Z,30.20
2019-03-29T13:45:07.602Z,30.20
2019-03-29T13:47:37.332Z,30.20
2019-03-29T13:50:09.457Z,30.10
2019-03-29T13:52:38.578Z,30.00
2019-03-29T13:55:07.852Z,29.90
2019-03-29T13:57:37.010Z,29.80
2019-03-29T14:00:09.271Z,30.00
2019-03-29T14:02:38.366Z,30.00
2019-03-29T14:05:07.770Z,29.90
2019-03-29T14:07:36.788Z,29.90
2019-03-29T14:10:07.715Z,29.80
2019-03-29T14:12:37.088Z,29.60
2019-03-29T14:15:08.154Z,29.50
2019-03-29T14:17:37.149Z,29.40
2019-03-29T14:20:06.401Z,29.40
2019-03-29T14:22:35.479Z,29.40
2019-03-29T14:25:05.620Z,29.40
2019-03-29T14:27:34.696Z,29.50
2019-03-29T14:30:05.307Z,29.40
2019-03-29T14:32:34.659Z,29.40
2019-03-29T14:35:05.319Z,29.30
2019-03-29T14:37:35.480Z,29.20
2019-03-29T14:40:06.471Z,29.10
2019-03-29T14:42:35.754Z,28.90
2019-03-29T14:45:07.383Z,28.60
2019-03-29T14:47:43.317Z,28.20
2019-03-29T14:50:08.040Z,27.70
2019-03-29T14:52:37.208Z,27.20
2019-03-29T14:55:07.101Z,26.80
2019-03-29T14:57:36.077Z,26.30
2019-03-29T15:00:11.219Z,25.80
2019-03-29T15:02:40.296Z,25.40
2019-03-29T15:05:09.502Z,25.00
2019-03-29T15:07:38.416Z,24.70
2019-03-29T15:10:09.120Z,24.40
2019-03-29T15:12:38.244Z,24.20
2019-03-29T15:15:07.591Z,24.00
2019-03-29T15:17:36.560Z,23.80
2019-03-29T15:20:06.991Z,23.60
2019-03-29T15:22:36.125Z,23.40
2019-03-29T15:25:05.770Z,23.40
2019-03-29T15:27:34.828Z,23.10
2019-03-29T15:30:04.918Z,23.00
2019-03-29T15:32:33.817Z,23.00
2019-03-29T15:35:02.781Z,22.90
2019-03-29T15:37:31.633Z,22.90
2019-03-29T15:40:00.510Z,22.80
2019-03-29T15:42:29.598Z,22.60
2019-03-29T15:44:58.598Z,22.50
2019-03-29T15:47:27.631Z,22.40
2019-03-29T15:49:56.952Z,22.40
2019-03-29T15:52:25.962Z,22.30
2019-03-29T15:54:55.556Z,22.30
2019-03-29T15:57:24.727Z,22.30
2019-03-29T15:59:53.795Z,22.30
2019-03-29T16:02:22.837Z,22.20
2019-03-29T16:04:51.724Z,22.20
2019-03-29T16:07:20.720Z,22.10
2019-03-29T16:09:49.647Z,22.10
2019-03-29T16:12:18.570Z,22.00
2019-03-29T16:14:47.334Z,22.10
2019-03-29T16:17:16.415Z,22.10
2019-03-29T16:19:45.307Z,22.10
2019-03-29T16:22:14.312Z,22.00
2019-03-29T16:24:43.318Z,22.10
2019-03-29T16:27:12.379Z,22.10
2019-03-29T16:29:41.475Z,22.10
2019-03-29T16:32:10.665Z,22.10
2019-03-29T16:34:39.616Z,22.00
2019-03-29T16:37:08.487Z,22.00
2019-03-29T16:39:37.561Z,22.00
2019-03-29T16:42:06.641Z,21.90
2019-03-29T16:44:35.738Z,22.00
2019-03-29T16:47:04.635Z,21.90
2019-03-29T16:49:34.154Z,21.90
2019-03-29T16:52:03.228Z,21.80
2019-03-29T16:54:33.354Z,21.80
2019-03-29T16:57:02.224Z,21.80
2019-03-29T16:59:31.405Z,21.70
2019-03-29T17:02:00.516Z,21.60
2019-03-29T17:04:29.300Z,21.50
2019-03-29T17:06:58.449Z,21.60
2019-03-29T17:09:27.371Z,21.50
2019-03-29T17:11:56.463Z,21.40
2019-03-29T17:14:25.437Z,21.40
2019-03-29T17:16:54.397Z,21.40
2019-03-29T17:19:23.492Z,21.30
2019-03-29T17:21:52.501Z,21.30
2019-03-29T17:24:22.380Z,21.30
2019-03-29T17:26:51.397Z,21.30
2019-03-29T17:29:20.770Z,21.20
2019-03-29T17:31:49.718Z,21.20
2019-03-29T17:34:18.671Z,21.10
2019-03-29T17:36:47.709Z,21.00
2019-03-29T17:39:17.090Z,20.90
2019-03-29T17:41:46.179Z,20.70
2019-03-29T17:44:15.232Z,20.70
2019-03-29T17:46:44.252Z,20.60
2019-03-29T17:49:13.442Z,20.60
2019-03-29T17:51:42.276Z,20.60
2019-03-29T17:54:11.309Z,20.40
2019-03-29T17:56:40.483Z,20.30
2019-03-29T17:59:09.656Z,20.30
2019-03-29T18:01:39.510Z,20.20
2019-03-29T18:04:08.675Z,20.10
2019-03-29T18:06:37.626Z,19.90
2019-03-29T18:09:07.792Z,19.90
2019-03-29T18:11:37.054Z,19.70
2019-03-29T18:14:06.256Z,19.60
2019-03-29T18:16:35.324Z,19.40
2019-03-29T18:19:04.364Z,19.20
2019-03-29T18:21:33.400Z,19.20
2019-03-29T18:24:02.335Z,19.00
2019-03-29T18:26:31.338Z,18.80
2019-03-29T18:29:00.739Z,18.50
2019-03-29T18:31:29.842Z,18.30
2019-03-29T18:33:58.671Z,18.20
2019-03-29T18:36:27.532Z,18.00
2019-03-29T18:38:56.540Z,17.90
2019-03-29T18:41:25.661Z,17.70
2019-03-29T18:43:54.677Z,17.50
2019-03-29T18:46:23.921Z,17.40
2019-03-29T18:48:53.066Z,17.30
2019-03-29T18:51:22.336Z,17.20
2019-03-29T18:53:51.280Z,17.10
2019-03-29T18:56:20.367Z,16.90
2019-03-29T18:58:49.665Z,16.90
2019-03-29T19:01:18.594Z,16.80
2019-03-29T19:03:47.440Z,16.70
2019-03-29T19:06:16.534Z,16.70
2019-03-29T19:08:45.387Z,16.60
2019-03-29T19:11:14.382Z,16.50
2019-03-29T19:13:43.590Z,16.50
2019-03-29T19:16:12.553Z,16.40
2019-03-29T19:18:41.557Z,16.40
2019-03-29T19:21:10.471Z,16.40
2019-03-29T19:23:39.603Z,16.30
2019-03-29T19:26:08.754Z,16.30
2019-03-29T19:28:37.719Z,16.20
2019-03-29T19:31:06.748Z,16.10
2019-03-29T19:33:35.862Z,16.00
2019-03-29T19:36:05.026Z,15.90
2019-03-29T19:38:34.079Z,15.80
2019-03-29T19:41:03.182Z,15.90
2019-03-29T19:43:32.450Z,15.80
2019-03-29T19:46:01.644Z,15.70
2019-03-29T19:48:30.870Z,15.70
2019-03-29T19:51:00.090Z,15.70
2019-03-29T19:53:29.322Z,15.70
2019-03-29T19:55:58.393Z,15.50
2019-03-29T19:58:27.498Z,15.50
2019-03-29T20:00:56.509Z,15.50
2019-03-29T20:03:25.637Z,15.50
2019-03-29T20:05:54.803Z,15.40
2019-03-29T20:08:23.901Z,15.40
2019-03-29T20:10:53.105Z,15.30
2019-03-29T20:13:22.888Z,15.30
2019-03-29T20:15:52.601Z,15.30
2019-03-29T20:18:22.158Z,15.20
2019-03-29T20:20:51.374Z,15.20
2019-03-29T20:23:21.310Z,15.20
2019-03-29T20:25:50.666Z,15.20
2019-03-29T20:28:20.246Z,15.10
2019-03-29T20:30:49.509Z,15.10
2019-03-29T20:33:18.885Z,15.00
2019-03-29T20:35:48.362Z,14.90
2019-03-29T20:38:18.470Z,14.90
2019-03-29T20:40:48.239Z,14.90
2019-03-29T20:43:17.229Z,14.80
2019-03-29T20:45:46.121Z,14.80
2019-03-29T20:48:15.190Z,14.70
2019-03-29T20:50:44.323Z,14.70
2019-03-29T20:53:13.684Z,14.60
2019-03-29T20:55:42.634Z,14.60
2019-03-29T20:58:11.760Z,14.50
2019-03-29T21:00:40.944Z,14.50
2019-03-29T21:03:09.978Z,14.40
2019-03-29T21:05:38.920Z,14.30
2019-03-29T21:08:08.340Z,14.20
2019-03-29T21:10:38.402Z,14.20
2019-03-29T21:13:07.872Z,14.20
2019-03-29T21:15:36.916Z,14.20
2019-03-29T21:18:06.102Z,14.20
2019-03-29T21:20:35.556Z,14.10
2019-03-29T21:23:04.650Z,14.00
2019-03-29T21:25:33.876Z,14.10
2019-03-29T21:28:03.092Z,14.00
2019-03-29T21:30:32.162Z,13.90
2019-03-29T21:33:01.108Z,13.90
2019-03-29T21:35:30.253Z,13.80
2019-03-29T21:37:59.415Z,13.70
2019-03-29T21:40:28.462Z,13.60
2019-03-29T21:42:57.549Z,13.50
2019-03-29T21:45:29.031Z,13.60
2019-03-29T21:48:09.937Z,13.50
2019-03-29T21:50:28.089Z,13.40
2019-03-29T21:52:57.224Z,13.50
2019-03-29T21:55:26.379Z,13.30
2019-03-29T21:57:55.339Z,13.30
2019-03-29T22:00:24.458Z,13.30
2019-03-29T22:02:53.424Z,13.30
2019-03-29T22:05:22.579Z,13.20
2019-03-29T22:07:51.553Z,13.10
2019-03-29T22:10:20.549Z,13.00
2019-03-29T22:12:49.496Z,13.10
2019-03-29T22:15:18.544Z,13.00
2019-03-29T22:17:47.464Z,13.00
2019-03-29T22:20:16.586Z,12.90
2019-03-29T22:22:45.573Z,12.90
2019-03-29T22:25:14.782Z,12.90
2019-03-29T22:27:43.750Z,12.80
2019-03-29T22:30:12.719Z,12.70
2019-03-29T22:32:41.906Z,12.70
2019-03-29T22:35:10.806Z,12.70
2019-03-29T22:37:40.030Z,12.60
2019-03-29T22:40:09.240Z,12.70
2019-03-29T22:42:38.435Z,12.50
2019-03-29T22:45:07.707Z,12.50
2019-03-29T22:47:36.786Z,12.50
2019-03-29T22:50:06.409Z,12.50
2019-03-29T22:52:35.618Z,12.50
2019-03-29T22:55:07.288Z,12.50
2019-03-29T22:57:36.337Z,12.40
2019-03-29T23:00:24.248Z,12.40
2019-03-29T23:02:56.857Z,12.40
2019-03-29T23:05:25.695Z,12.30
2019-03-29T23:07:54.791Z,12.30
2019-03-29T23:10:23.692Z,12.20
2019-03-29T23:12:52.759Z,12.20
2019-03-29T23:15:21.786Z,12.20
2019-03-29T23:17:50.843Z,12.20
2019-03-29T23:20:19.824Z,12.10
2019-03-29T23:22:48.979Z,12.00
2019-03-29T23:25:18.316Z,12.00
2019-03-29T23:27:47.365Z,12.00
2019-03-29T23:30:16.478Z,12.00
2019-03-29T23:32:45.678Z,12.00
2019-03-29T23:35:15.029Z,11.90
2019-03-29T23:37:43.983Z,11.90
2019-03-29T23:40:13.147Z,11.80
2019-03-29T23:42:42.216Z,11.80
2019-03-29T23:45:11.207Z,11.70
2019-03-29T23:47:40.188Z,11.70
2019-03-29T23:50:09.154Z,11.70
2019-03-29T23:52:38.383Z,11.70
2019-03-29T23:55:07.610Z,11.60
2019-03-29T23:57:36.682Z,11.50
